PATC/TNC METAR and TAF weather

Enter ICAO airport designator
Station Type Date Time Source
PATC METAR 2022/12/10 02:55 UTC NOAA

PATC 100255Z AUTO 28012KT 10SM BKN016 M02/M04 A2984 RMK AO2 SLP109 T10231041 58005


Station Type Date Time Source
PATC Decoded METAR 2022/12/10 02:55 UTC NOAA

Tin City Airways Facilities Sector, AK, United States (PATC) 65-34N 167-55W
Dec 09, 2022 - 09:55 PM EST / 2022.12.10 0255 UTC
Wind: from the W (280 degrees) at 14 MPH (12 KT):0
Visibility: 10 mile(s):0
Sky conditions: mostly cloudy
Temperature: 27.9 F (-2.3 C)
Windchill: 17 F (-8 C):1
Dew Point: 24.6 F (-4.1 C)
Relative Humidity: 87%
Pressure (altimeter): 29.84 in. Hg (1010 hPa)
Pressure tendency: 0.01 inches (0.5 hPa) lower than three hours ago
ob: PATC 100255Z AUTO 28012KT 10SM BKN016 M02/M04 A2984 RMK AO2 SLP109 T10231041 58005
cycle: 3

Station Type Date Time Source
PATC TAF 2016/08/27 04:12 UTC NOAA

TAF PATC 270400Z 2704/2810 18012G18KT 0400 FG OVC002 QNH3015INS TX10/2718Z TN06/2710Z

Example: see airport list